createdAt,value
2023-03-10T00:01:22.458Z,13.51
2023-03-10T00:03:49.686Z,13.47
2023-03-10T00:06:19.947Z,13.44
2023-03-10T00:08:47.069Z,13.43
2023-03-10T00:11:14.779Z,13.45
2023-03-10T00:13:42.552Z,13.46
2023-03-10T00:16:20.885Z,13.45
2023-03-10T00:18:48.468Z,13.44
2023-03-10T00:21:17.090Z,13.44
2023-03-10T00:23:44.401Z,13.44
2023-03-10T00:26:15.832Z,13.43
2023-03-10T00:28:42.960Z,13.40
2023-03-10T00:31:15.652Z,13.36
2023-03-10T00:33:45.438Z,13.31
2023-03-10T00:36:24.368Z,13.22
2023-03-10T00:38:52.406Z,13.18
2023-03-10T00:41:21.962Z,13.13
2023-03-10T00:43:49.251Z,13.12
2023-03-10T00:46:16.606Z,13.10
2023-03-10T00:48:44.185Z,13.01
2023-03-10T00:51:12.313Z,12.91
2023-03-10T00:53:40.647Z,12.84
2023-03-10T00:56:09.179Z,12.83
2023-03-10T00:58:36.462Z,12.82
2023-03-10T01:01:05.727Z,12.85
2023-03-10T01:03:32.610Z,12.83
2023-03-10T01:05:59.488Z,12.78
2023-03-10T01:08:26.320Z,12.79
2023-03-10T01:10:53.289Z,12.76
2023-03-10T01:13:22.181Z,12.74
2023-03-10T01:15:50.694Z,12.70
2023-03-10T01:18:19.417Z,12.62
2023-03-10T01:20:47.474Z,12.52
2023-03-10T01:23:19.860Z,12.43
2023-03-10T01:25:47.065Z,12.39
2023-03-10T01:28:14.148Z,12.41
2023-03-10T01:30:41.633Z,12.45
2023-03-10T01:33:09.858Z,12.50
2023-03-10T01:35:37.592Z,12.51
2023-03-10T01:38:04.922Z,12.50
2023-03-10T01:40:32.179Z,12.48
2023-03-10T01:43:38.643Z,12.49
2023-03-10T01:46:29.752Z,12.51
2023-03-10T01:49:02.582Z,12.53
2023-03-10T01:51:32.038Z,12.53
2023-03-10T01:53:59.412Z,12.52
2023-03-10T01:56:26.742Z,12.52
2023-03-10T01:58:54.291Z,12.52
2023-03-10T02:01:21.860Z,12.46
2023-03-10T02:04:00.377Z,12.43
2023-03-10T02:06:27.725Z,12.36
2023-03-10T02:08:59.181Z,12.34
2023-03-10T02:11:26.078Z,12.36
2023-03-10T02:13:54.308Z,12.33
2023-03-10T02:16:22.391Z,12.33
2023-03-10T02:18:50.101Z,12.29
2023-03-10T02:21:32.095Z,12.31
2023-03-10T02:24:07.637Z,12.33
2023-03-10T02:32:38.288Z,12.27
2023-03-10T02:35:06.089Z,12.28
2023-03-10T02:37:36.678Z,12.30
2023-03-10T02:40:05.604Z,12.33
2023-03-10T02:42:35.321Z,12.34
2023-03-10T02:45:04.006Z,12.34
2023-03-10T02:47:32.765Z,12.33
2023-03-10T02:49:59.635Z,12.34
2023-03-10T02:52:44.755Z,12.35
2023-03-10T02:55:16.202Z,12.36
2023-03-10T02:57:44.013Z,12.32
2023-03-10T03:00:12.315Z,12.30
2023-03-10T03:02:39.935Z,12.29
2023-03-10T03:05:07.455Z,12.31
2023-03-10T03:07:34.491Z,12.33
2023-03-10T03:10:02.963Z,12.34
2023-03-10T03:12:30.037Z,12.35
2023-03-10T03:14:56.862Z,12.33
2023-03-10T03:17:23.709Z,12.32
2023-03-10T03:19:50.728Z,12.32
2023-03-10T03:22:17.759Z,12.34
2023-03-10T03:24:44.690Z,12.32
2023-03-10T03:27:11.592Z,12.33
2023-03-10T03:29:38.481Z,12.35
2023-03-10T03:32:06.662Z,12.36
2023-03-10T03:34:34.577Z,12.36
2023-03-10T03:37:02.853Z,12.36
2023-03-10T03:39:33.666Z,12.37
2023-03-10T03:42:02.913Z,12.38
2023-03-10T03:44:34.154Z,12.39
2023-03-10T03:47:01.043Z,12.41
2023-03-10T03:49:28.254Z,12.44
2023-03-10T03:51:55.261Z,12.45
2023-03-10T03:54:23.023Z,12.45
2023-03-10T03:56:49.871Z,12.45
2023-03-10T03:59:17.630Z,12.45
2023-03-10T04:01:44.711Z,12.47
2023-03-10T04:04:11.618Z,12.46
2023-03-10T04:06:38.550Z,12.42
2023-03-10T04:09:06.770Z,12.40
2023-03-10T04:11:33.672Z,12.36
2023-03-10T04:14:00.671Z,12.31
2023-03-10T04:16:27.794Z,12.24
2023-03-10T04:18:54.726Z,12.17
2023-03-10T04:21:21.555Z,12.17
2023-03-10T04:23:49.799Z,12.19
2023-03-10T04:26:19.245Z,12.20
2023-03-10T04:28:46.215Z,12.21
2023-03-10T04:31:16.895Z,12.19
2023-03-10T04:33:44.796Z,12.20
2023-03-10T04:36:12.420Z,12.17
2023-03-10T04:38:40.383Z,12.16
2023-03-10T04:41:09.559Z,12.18
2023-03-10T04:43:42.006Z,12.17
2023-03-10T04:46:09.965Z,12.16
2023-03-10T04:48:37.914Z,12.16
2023-03-10T04:51:07.776Z,12.14
2023-03-10T04:53:38.577Z,12.15
2023-03-10T04:56:08.005Z,12.15
2023-03-10T04:58:36.309Z,12.18
2023-03-10T05:01:10.480Z,12.19
2023-03-10T05:03:39.915Z,12.19
2023-03-10T05:06:16.583Z,12.16
2023-03-10T05:08:46.798Z,12.18
2023-03-10T05:11:14.527Z,12.16
2023-03-10T05:13:41.427Z,12.06
2023-03-10T05:16:16.458Z,12.00
2023-03-10T05:18:44.478Z,12.01
2023-03-10T05:21:12.148Z,12.03
2023-03-10T05:23:39.542Z,12.05
2023-03-10T05:26:08.665Z,12.10
2023-03-10T05:28:36.909Z,12.09
2023-03-10T05:31:13.373Z,12.09
2023-03-10T05:33:42.371Z,12.11
2023-03-10T05:36:12.700Z,12.11
2023-03-10T05:38:40.042Z,12.15
2023-03-10T05:41:09.611Z,12.21
2023-03-10T05:43:38.082Z,12.31
2023-03-10T05:46:06.126Z,12.38
2023-03-10T05:48:35.313Z,12.52
2023-03-10T05:51:03.799Z,12.65
2023-03-10T05:53:32.974Z,12.72
2023-03-10T05:56:05.744Z,12.79
2023-03-10T05:58:32.824Z,12.84
2023-03-10T06:01:00.127Z,12.83
2023-03-10T06:03:28.746Z,12.85
2023-03-10T06:05:59.574Z,12.90
2023-03-10T06:08:29.978Z,12.85
2023-03-10T06:10:57.876Z,12.71
2023-03-10T06:13:25.191Z,12.72
2023-03-10T06:15:55.054Z,12.78
2023-03-10T06:18:22.375Z,12.85
2023-03-10T06:20:53.681Z,12.89
2023-03-10T06:23:21.645Z,12.93
2023-03-10T06:26:02.165Z,12.98
2023-03-10T06:28:33.488Z,13.04
2023-03-10T06:31:02.081Z,13.08
2023-03-10T06:33:30.121Z,13.08
2023-03-10T06:35:57.612Z,13.09
2023-03-10T06:38:25.248Z,13.11
2023-03-10T06:40:52.308Z,13.15
2023-03-10T06:43:20.276Z,13.14
2023-03-10T06:45:49.322Z,13.13
2023-03-10T06:48:16.752Z,13.17
2023-03-10T06:50:48.234Z,13.24
2023-03-10T06:53:17.562Z,13.28
2023-03-10T06:55:44.550Z,13.28
2023-03-10T06:58:11.570Z,13.31
2023-03-10T07:00:39.783Z,13.36
2023-03-10T07:03:06.872Z,13.40
2023-03-10T07:05:33.964Z,13.37
2023-03-10T07:08:00.786Z,13.27
2023-03-10T07:10:27.641Z,13.18
2023-03-10T07:12:58.905Z,13.14
2023-03-10T07:15:27.002Z,13.19
2023-03-10T07:17:56.288Z,13.29
2023-03-10T07:20:24.447Z,13.30
2023-03-10T07:22:51.502Z,13.35
2023-03-10T07:25:19.022Z,13.42
2023-03-10T07:27:45.777Z,13.49
2023-03-10T07:30:13.169Z,13.58
2023-03-10T07:32:40.099Z,13.68
2023-03-10T07:35:07.404Z,13.77
2023-03-10T07:37:37.828Z,13.87
2023-03-10T07:40:06.339Z,14.07
2023-03-10T07:42:33.319Z,14.34
2023-03-10T07:45:00.193Z,14.82
2023-03-10T07:47:27.147Z,15.34
2023-03-10T07:49:54.036Z,15.70
2023-03-10T07:52:20.928Z,16.07
2023-03-10T07:54:48.456Z,16.30
2023-03-10T07:57:15.727Z,16.40
2023-03-10T07:59:43.022Z,16.45
2023-03-10T08:02:13.089Z,16.50
2023-03-10T08:04:40.708Z,16.53
2023-03-10T08:07:08.705Z,16.55
2023-03-10T08:09:35.694Z,16.57
2023-03-10T08:12:03.533Z,16.54
2023-03-10T08:14:32.155Z,16.37
2023-03-10T08:16:59.369Z,16.29
2023-03-10T08:19:27.680Z,16.25
2023-03-10T08:21:56.598Z,16.22
2023-03-10T08:24:24.870Z,16.24
2023-03-10T08:26:51.816Z,16.29
2023-03-10T08:29:18.626Z,16.37
2023-03-10T08:31:45.698Z,16.48
2023-03-10T08:34:13.754Z,16.59
2023-03-10T08:36:41.015Z,16.70
2023-03-10T08:39:08.648Z,16.60
2023-03-10T08:41:46.130Z,16.48
2023-03-10T08:44:15.633Z,16.61
2023-03-10T08:46:46.603Z,16.76
2023-03-10T08:49:16.243Z,17.01
2023-03-10T08:51:43.527Z,17.40
2023-03-10T08:54:15.256Z,17.74
2023-03-10T08:56:42.166Z,18.09
2023-03-10T08:59:09.024Z,18.39
2023-03-10T09:01:37.741Z,18.70
2023-03-10T09:04:06.661Z,19.01
2023-03-10T09:06:34.324Z,19.21
2023-03-10T09:09:01.906Z,19.24
2023-03-10T09:16:57.423Z,19.08
2023-03-10T09:19:24.396Z,19.00
2023-03-10T09:21:51.221Z,18.90
2023-03-10T09:24:19.482Z,18.83
2023-03-10T09:29:12.206Z,18.72
2023-03-10T09:31:39.793Z,18.61
2023-03-10T09:34:08.298Z,18.53
2023-03-10T09:36:35.688Z,18.52
2023-03-10T09:39:02.977Z,18.48
2023-03-10T09:41:38.687Z,18.43
2023-03-10T09:44:27.166Z,18.34
2023-03-10T09:47:25.272Z,18.26
2023-03-10T09:50:01.218Z,18.19
2023-03-10T09:52:34.257Z,18.14
2023-03-10T09:55:14.018Z,18.07
2023-03-10T09:57:41.160Z,18.00
2023-03-10T10:00:11.751Z,17.93
2023-03-10T10:02:46.486Z,17.84
2023-03-10T10:05:24.024Z,17.73
2023-03-10T10:07:55.993Z,17.60
2023-03-10T10:10:31.618Z,17.54
2023-03-10T10:13:03.075Z,17.47
2023-03-10T10:16:24.730Z,17.40
2023-03-10T10:19:12.070Z,17.30
2023-03-10T10:21:49.012Z,17.21
2023-03-10T10:24:17.407Z,17.02
2023-03-10T10:26:44.458Z,16.88
2023-03-10T10:29:24.783Z,16.82
2023-03-10T10:32:12.630Z,16.84
2023-03-10T10:34:47.146Z,16.84
2023-03-10T10:37:37.247Z,16.83
2023-03-10T10:40:23.473Z,16.82
2023-03-10T10:42:57.747Z,16.83
2023-03-10T10:45:35.777Z,16.83
2023-03-10T10:48:03.744Z,16.84
2023-03-10T10:50:37.441Z,16.84
2023-03-10T10:53:16.524Z,16.83
2023-03-10T10:55:45.458Z,16.82
2023-03-10T10:58:27.198Z,16.80
2023-03-10T11:01:04.971Z,16.77
2023-03-10T11:03:38.781Z,16.75
2023-03-10T11:06:27.253Z,16.74
2023-03-10T11:09:06.442Z,16.73
2023-03-10T11:11:34.253Z,16.72
2023-03-10T11:14:20.918Z,16.71
2023-03-10T11:17:06.986Z,16.69
2023-03-10T11:19:56.169Z,16.69
2023-03-10T11:22:38.357Z,16.67
2023-03-10T11:25:15.759Z,16.66
2023-03-10T11:28:03.454Z,16.65
2023-03-10T11:30:34.359Z,16.64
2023-03-10T11:33:23.754Z,16.61
2023-03-10T11:35:55.169Z,16.49
2023-03-10T11:38:34.286Z,16.47
2023-03-10T11:41:31.018Z,16.49
2023-03-10T11:44:21.037Z,16.49
2023-03-10T11:46:53.444Z,16.50
2023-03-10T11:49:26.897Z,16.49
2023-03-10T11:51:59.784Z,16.46
2023-03-10T11:54:33.147Z,16.45
2023-03-10T11:57:03.814Z,16.41
2023-03-10T11:59:34.317Z,16.36
2023-03-10T12:02:11.795Z,16.33
2023-03-10T12:05:00.133Z,16.34
2023-03-10T12:07:34.703Z,16.35
2023-03-10T12:10:04.714Z,16.36
2023-03-10T12:12:36.281Z,16.35
2023-03-10T12:15:12.787Z,16.36
2023-03-10T12:17:41.380Z,16.34
2023-03-10T12:20:18.441Z,16.32
2023-03-10T12:22:51.030Z,16.29
2023-03-10T12:25:38.211Z,16.31
2023-03-10T12:28:16.771Z,16.33
2023-03-10T12:31:06.617Z,16.33
2023-03-10T12:33:42.624Z,16.27
2023-03-10T12:36:13.238Z,16.20
2023-03-10T12:38:47.760Z,16.21
2023-03-10T12:41:45.496Z,16.26
2023-03-10T12:44:51.913Z,16.29
2023-03-10T12:47:21.153Z,16.33
2023-03-10T12:49:58.267Z,16.39
2023-03-10T12:52:47.834Z,16.45
2023-03-10T12:55:33.633Z,16.51
2023-03-10T12:58:21.014Z,16.53
2023-03-10T13:00:55.775Z,16.51
2023-03-10T13:03:58.710Z,16.52
2023-03-10T13:06:46.509Z,16.44
2023-03-10T13:09:14.590Z,16.33
2023-03-10T13:11:45.421Z,16.25
2023-03-10T13:14:21.780Z,16.27
2023-03-10T13:17:00.960Z,16.24
2023-03-10T13:19:31.233Z,16.11
2023-03-10T13:21:59.101Z,16.05
2023-03-10T13:24:36.032Z,16.03
2023-03-10T13:27:05.164Z,15.99
2023-03-10T13:29:32.311Z,15.95
2023-03-10T13:31:59.543Z,15.98
2023-03-10T13:34:29.259Z,16.06
2023-03-10T13:37:11.114Z,16.11
2023-03-10T13:39:38.464Z,16.19
2023-03-10T13:42:28.477Z,16.26
2023-03-10T13:45:01.953Z,16.17
2023-03-10T13:47:31.215Z,16.11
2023-03-10T13:50:01.496Z,16.14
2023-03-10T13:52:31.101Z,16.22
2023-03-10T13:55:15.858Z,16.30
2023-03-10T13:57:44.707Z,16.44
2023-03-10T14:00:15.972Z,16.50
2023-03-10T14:02:45.235Z,16.59
2023-03-10T14:05:41.961Z,16.71
2023-03-10T14:08:32.494Z,16.81
2023-03-10T14:11:24.090Z,16.89
2023-03-10T14:13:51.781Z,16.96
2023-03-10T14:16:18.707Z,17.05
2023-03-10T14:18:47.934Z,17.13
2023-03-10T14:21:24.482Z,17.20
2023-03-10T14:23:51.887Z,17.25
2023-03-10T14:26:18.686Z,17.28
2023-03-10T14:28:45.729Z,17.33
2023-03-10T14:31:23.870Z,17.36
2023-03-10T14:33:51.541Z,17.37
2023-03-10T14:36:18.609Z,17.36
2023-03-10T14:38:45.989Z,17.36
2023-03-10T14:41:14.116Z,17.36
2023-03-10T14:43:41.994Z,17.33
2023-03-10T14:46:11.982Z,17.31
2023-03-10T14:48:41.944Z,17.32
2023-03-10T14:51:22.519Z,17.34
2023-03-10T14:53:55.821Z,17.31
2023-03-10T14:56:22.955Z,17.26
2023-03-10T14:58:52.575Z,17.14
2023-03-10T15:01:21.220Z,16.97
2023-03-10T15:03:51.739Z,16.79
2023-03-10T15:06:20.205Z,16.64
2023-03-10T15:08:47.138Z,16.51
2023-03-10T15:11:15.929Z,16.46
2023-03-10T15:13:44.322Z,16.31
2023-03-10T15:16:13.808Z,16.14
2023-03-10T15:18:40.626Z,16.00
2023-03-10T15:21:08.993Z,15.89
2023-03-10T15:23:35.936Z,15.79
2023-03-10T15:26:09.580Z,15.66
2023-03-10T15:28:37.428Z,15.46
2023-03-10T15:31:04.696Z,15.34
2023-03-10T15:33:32.091Z,15.25
2023-03-10T15:35:59.566Z,15.19
2023-03-10T15:38:26.343Z,15.13
2023-03-10T15:40:53.221Z,15.07
2023-03-10T15:43:20.040Z,15.04
2023-03-10T15:45:49.224Z,15.03
2023-03-10T15:48:16.866Z,15.01
2023-03-10T15:50:47.078Z,15.00
2023-03-10T15:53:14.115Z,14.99
2023-03-10T15:55:42.030Z,14.96
2023-03-10T15:58:10.868Z,14.94
2023-03-10T16:00:38.237Z,14.90
2023-03-10T16:03:05.242Z,14.88
2023-03-10T16:05:32.178Z,14.82
2023-03-10T16:07:58.992Z,14.72
2023-03-10T16:10:25.842Z,14.69
2023-03-10T16:12:52.946Z,14.69
2023-03-10T16:15:22.015Z,14.63
2023-03-10T16:17:48.980Z,14.60
2023-03-10T16:20:19.156Z,14.61
2023-03-10T16:22:46.169Z,14.61
2023-03-10T16:25:19.026Z,14.60
2023-03-10T16:27:46.901Z,14.57
2023-03-10T16:30:15.808Z,14.57
2023-03-10T16:32:50.070Z,14.56
2023-03-10T16:35:17.986Z,14.54
2023-03-10T16:37:44.956Z,14.46
2023-03-10T16:40:12.393Z,14.37
2023-03-10T16:42:39.333Z,14.36
2023-03-10T16:45:06.982Z,14.34
2023-03-10T16:47:33.869Z,14.30
2023-03-10T16:50:00.764Z,14.29
2023-03-10T16:52:27.623Z,14.29
2023-03-10T16:54:58.647Z,14.23
2023-03-10T16:57:25.514Z,14.10
2023-03-10T16:59:52.366Z,14.05
2023-03-10T17:02:19.315Z,14.05
2023-03-10T17:04:46.204Z,14.05
2023-03-10T17:07:14.280Z,13.92
2023-03-10T17:09:41.325Z,13.76
2023-03-10T17:12:08.343Z,13.66
2023-03-10T17:14:35.368Z,13.67
2023-03-10T17:17:02.496Z,13.65
2023-03-10T17:19:30.227Z,13.67
2023-03-10T17:22:01.350Z,13.71
2023-03-10T17:24:29.547Z,13.73
2023-03-10T17:26:56.537Z,13.74
2023-03-10T17:29:23.414Z,13.74
2023-03-10T17:31:51.840Z,13.67
2023-03-10T17:34:20.067Z,13.57
2023-03-10T17:36:50.347Z,13.56
2023-03-10T17:39:19.920Z,13.57
2023-03-10T17:41:47.820Z,13.54
2023-03-10T17:44:15.528Z,13.51
2023-03-10T17:46:42.446Z,13.52
2023-03-10T17:49:14.153Z,13.54
2023-03-10T17:51:51.279Z,13.54
2023-03-10T17:54:20.961Z,13.52
2023-03-10T17:56:48.516Z,13.53
2023-03-10T17:59:16.395Z,13.45
2023-03-10T18:01:45.216Z,13.36
2023-03-10T18:04:12.795Z,13.31
2023-03-10T18:06:39.613Z,13.26
2023-03-10T18:09:09.069Z,13.25
2023-03-10T18:11:36.361Z,13.20
2023-03-10T18:14:04.289Z,13.13
2023-03-10T18:16:34.680Z,13.18
2023-03-10T18:19:02.081Z,13.04
2023-03-10T18:21:29.028Z,12.98
2023-03-10T18:23:56.089Z,13.00
2023-03-10T18:26:28.434Z,12.97
2023-03-10T18:28:55.240Z,12.98
2023-03-10T18:31:28.670Z,12.96
2023-03-10T18:33:55.858Z,12.96
2023-03-10T18:36:24.639Z,12.92
2023-03-10T18:38:52.141Z,12.90
2023-03-10T18:41:20.938Z,12.94
2023-03-10T18:43:47.833Z,12.95
2023-03-10T18:46:14.710Z,12.97
2023-03-10T18:48:41.842Z,13.00
2023-03-10T18:51:08.710Z,13.03
2023-03-10T18:53:37.562Z,13.08
2023-03-10T18:56:04.943Z,13.12
2023-03-10T18:58:33.137Z,13.16
2023-03-10T19:01:00.034Z,13.19
2023-03-10T19:03:31.058Z,13.21
2023-03-10T19:05:58.272Z,13.19
2023-03-10T19:08:27.150Z,13.12
2023-03-10T19:10:57.335Z,13.13
2023-03-10T19:13:25.268Z,13.07
2023-03-10T19:15:52.224Z,13.06
2023-03-10T19:18:19.178Z,13.09
2023-03-10T19:20:46.593Z,13.08
2023-03-10T19:23:14.756Z,13.06
2023-03-10T19:25:41.915Z,13.08
2023-03-10T19:28:08.814Z,13.09
2023-03-10T19:30:35.961Z,13.10
2023-03-10T19:33:02.890Z,13.13
2023-03-10T19:35:29.726Z,13.15
2023-03-10T19:37:56.661Z,13.16
2023-03-10T19:40:23.781Z,13.15
2023-03-10T19:42:50.766Z,13.15
2023-03-10T19:45:18.881Z,13.16
2023-03-10T19:47:46.513Z,13.15
2023-03-10T19:50:16.244Z,13.10
2023-03-10T19:52:46.996Z,13.09
2023-03-10T19:55:19.996Z,13.12
2023-03-10T19:57:48.694Z,13.10
2023-03-10T20:00:18.964Z,13.06
2023-03-10T20:02:46.342Z,13.06
2023-03-10T20:05:16.940Z,13.08
2023-03-10T20:07:46.730Z,13.09
2023-03-10T20:10:17.321Z,13.10
2023-03-10T20:12:44.825Z,13.11
2023-03-10T20:15:11.718Z,13.11
2023-03-10T20:17:38.684Z,13.08
2023-03-10T20:20:10.503Z,13.04
2023-03-10T20:22:39.334Z,13.00
2023-03-10T20:25:08.672Z,13.03
2023-03-10T20:27:36.072Z,13.05
2023-03-10T20:30:10.777Z,13.08
2023-03-10T20:32:37.757Z,13.08
2023-03-10T20:35:05.276Z,12.96
2023-03-10T20:37:33.767Z,12.89
2023-03-10T20:40:00.533Z,12.93
2023-03-10T20:42:27.312Z,12.96
2023-03-10T20:44:54.268Z,12.98
2023-03-10T20:47:21.045Z,13.00
2023-03-10T20:49:59.095Z,13.02
2023-03-10T20:52:26.239Z,13.02
2023-03-10T20:54:53.862Z,13.02
2023-03-10T20:57:21.193Z,13.03
2023-03-10T20:59:48.243Z,13.03
2023-03-10T21:02:16.788Z,13.03
2023-03-10T21:04:44.217Z,13.04
2023-03-10T21:07:11.453Z,13.02
2023-03-10T21:09:38.412Z,13.00
2023-03-10T21:12:05.266Z,13.00
2023-03-10T21:14:32.010Z,12.99
2023-03-10T21:17:00.054Z,12.99
2023-03-10T21:19:27.744Z,12.99
2023-03-10T21:21:55.211Z,12.94
2023-03-10T21:24:22.157Z,12.84
2023-03-10T21:26:49.062Z,12.83
2023-03-10T21:29:15.918Z,12.82
2023-03-10T21:31:42.781Z,12.83
2023-03-10T21:34:09.556Z,12.76
2023-03-10T21:36:36.424Z,12.74
2023-03-10T21:39:03.738Z,12.77
2023-03-10T21:41:30.992Z,12.80
2023-03-10T21:43:59.088Z,12.83
2023-03-10T21:46:26.439Z,12.85
2023-03-10T21:48:54.095Z,12.81
2023-03-10T21:51:23.422Z,12.80
2023-03-10T21:53:51.109Z,12.81
2023-03-10T21:56:17.928Z,12.79
2023-03-10T21:58:46.275Z,12.78
2023-03-10T22:01:15.778Z,12.78
2023-03-10T22:03:43.177Z,12.78
2023-03-10T22:06:10.256Z,12.77
2023-03-10T22:08:38.251Z,12.77
2023-03-10T22:11:07.024Z,12.59
2023-03-10T22:13:35.137Z,12.51
2023-03-10T22:16:04.414Z,12.53
2023-03-10T22:18:31.611Z,12.55
2023-03-10T22:20:58.474Z,12.57
2023-03-10T22:23:25.608Z,12.59
2023-03-10T22:25:52.379Z,12.59
2023-03-10T22:28:19.128Z,12.52
2023-03-10T22:30:45.934Z,12.53
2023-03-10T22:33:12.803Z,12.58
2023-03-10T22:35:39.692Z,12.61
2023-03-10T22:38:06.687Z,12.65
2023-03-10T22:40:33.924Z,12.64
2023-03-10T22:43:00.729Z,12.63
2023-03-10T22:45:30.694Z,12.66
2023-03-10T22:48:03.665Z,12.69
2023-03-10T22:50:36.708Z,12.72
2023-03-10T22:53:05.844Z,12.74
2023-03-10T22:55:35.703Z,12.75
2023-03-10T22:58:04.711Z,12.74
2023-03-10T23:00:32.206Z,12.75
2023-03-10T23:02:59.420Z,12.76
2023-03-10T23:05:27.339Z,12.77
2023-03-10T23:07:54.966Z,12.76
2023-03-10T23:10:23.869Z,12.74
2023-03-10T23:12:52.209Z,12.66
2023-03-10T23:15:25.225Z,12.65
2023-03-10T23:17:54.148Z,12.63
2023-03-10T23:20:24.245Z,12.64
2023-03-10T23:22:51.293Z,12.61
2023-03-10T23:25:25.311Z,12.57
2023-03-10T23:27:52.166Z,12.56
2023-03-10T23:30:19.703Z,12.53
2023-03-10T23:32:49.333Z,12.55
2023-03-10T23:35:20.463Z,12.55
2023-03-10T23:37:47.389Z,12.58
2023-03-10T23:40:16.616Z,12.57
2023-03-10T23:42:43.977Z,12.56
2023-03-10T23:45:17.426Z,12.58
2023-03-10T23:47:45.413Z,12.60
2023-03-10T23:50:19.326Z,12.59
2023-03-10T23:52:47.065Z,12.52
2023-03-10T23:55:22.405Z,12.46
2023-03-10T23:57:49.424Z,12.46
